Nulato, Alaska
Current Conditions -  °F | °C
As of 4:46 PM on Friday 24 Oct 2014 (Local Time) from PAKV Reporting Station
Overcast Overcast  
Wind Chill: 30°   Ceiling: 3500
Heat Index: 30°   Visibility: 10mi
Dew Point: 28°   Wind: 0mph
Humidity: 92%   Direction: NA
Pressure: 29.93"   Gusts: NA
Location:  64.72°N, 158.13°W
Report Text: PAKV 250046Z AUTO 00000KT 10SM SCT008 OVC035 M01/M02 A2993 RMK AO2 UPE02 P0001 T10111022 TSNO
Loading
Personal Weather Stations






























Interactive Weather Map
Tropical Storm Tracking
New forecast layout! Learn more

10-Day Weather Forecast

Advertisements
Track Severe Weather on mobile